createdAt,value
2019-04-05T00:00:01.577Z,3.10
2019-04-05T00:02:32.223Z,3.10
2019-04-05T00:05:02.895Z,3.10
2019-04-05T00:07:33.687Z,3.10
2019-04-05T00:10:04.974Z,3.10
2019-04-05T00:12:35.889Z,3.10
2019-04-05T00:15:15.301Z,3.10
2019-04-05T00:17:39.442Z,3.10
2019-04-05T00:20:10.180Z,3.10
2019-04-05T00:22:40.916Z,3.10
2019-04-05T00:25:11.761Z,3.10
2019-04-05T00:27:42.458Z,3.00
2019-04-05T00:30:13.544Z,3.00
2019-04-05T00:32:44.251Z,2.90
2019-04-05T00:35:15.007Z,2.90
2019-04-05T00:37:45.734Z,3.00
2019-04-05T00:40:16.481Z,3.00
2019-04-05T00:42:47.166Z,3.00
2019-04-05T00:45:27.643Z,3.00
2019-04-05T00:47:50.258Z,3.00
2019-04-05T00:50:21.116Z,3.00
2019-04-05T00:52:51.854Z,3.00
2019-04-05T00:55:22.609Z,3.10
2019-04-05T00:57:53.345Z,3.00
2019-04-05T01:00:24.114Z,3.10
2019-04-05T01:02:54.819Z,3.00
2019-04-05T01:05:25.666Z,3.00
2019-04-05T01:07:56.405Z,3.00
2019-04-05T01:10:27.138Z,3.00
2019-04-05T01:12:57.865Z,3.10
2019-04-05T01:15:40.301Z,3.00
2019-04-05T01:18:00.937Z,3.00
2019-04-05T01:20:35.774Z,2.90
2019-04-05T01:23:06.491Z,2.90
2019-04-05T01:25:38.037Z,3.00
2019-04-05T01:28:08.745Z,3.00
2019-04-05T01:30:39.590Z,3.00
2019-04-05T01:33:10.307Z,3.00
2019-04-05T01:35:41.074Z,2.90
2019-04-05T01:38:12.060Z,2.90
2019-04-05T01:40:44.337Z,3.00
2019-04-05T01:43:15.492Z,3.00
2019-04-05T01:45:53.747Z,3.00
2019-04-05T01:48:18.935Z,3.10
2019-04-05T01:50:49.652Z,3.10
2019-04-05T01:53:20.357Z,3.20
2019-04-05T01:55:51.096Z,3.20
2019-04-05T01:58:21.847Z,3.10
2019-04-05T02:00:52.557Z,3.10
2019-04-05T02:03:23.264Z,3.20
2019-04-05T02:05:54.060Z,3.30
2019-04-05T02:08:24.816Z,3.30
2019-04-05T02:10:56.123Z,3.20
2019-04-05T02:13:27.259Z,3.20
2019-04-05T02:16:06.034Z,3.20
2019-04-05T02:18:30.353Z,3.20
2019-04-05T02:21:01.080Z,3.20
2019-04-05T02:23:31.839Z,3.20
2019-04-05T02:26:02.572Z,3.20
2019-04-05T02:28:33.318Z,3.20
2019-04-05T02:31:04.007Z,3.20
2019-04-05T02:33:34.752Z,3.30
2019-04-05T02:36:05.478Z,3.30
2019-04-05T02:38:36.214Z,3.30
2019-04-05T02:41:07.021Z,3.20
2019-04-05T02:43:39.198Z,3.20
2019-04-05T02:46:23.567Z,3.20
2019-04-05T02:48:46.261Z,3.30
2019-04-05T02:51:20.346Z,3.20
2019-04-05T02:53:52.528Z,3.20
2019-04-05T02:56:25.652Z,3.10
2019-04-05T02:58:56.768Z,3.10
2019-04-05T03:01:27.888Z,3.10
2019-04-05T03:03:59.163Z,3.00
2019-04-05T03:06:30.203Z,3.00
2019-04-05T03:09:01.449Z,3.00
2019-04-05T03:11:33.991Z,3.10
2019-04-05T03:14:05.651Z,3.10
2019-04-05T03:16:41.694Z,3.10
2019-04-05T03:19:17.749Z,3.10
2019-04-05T03:21:52.053Z,3.10
2019-04-05T03:24:25.990Z,3.10
2019-04-05T03:27:02.570Z,3.20
2019-04-05T03:29:33.386Z,3.30
2019-04-05T03:32:04.402Z,3.30
2019-04-05T03:34:35.836Z,3.30
2019-04-05T03:37:07.072Z,3.30
2019-04-05T03:39:37.899Z,3.40
2019-04-05T03:42:09.207Z,3.30
2019-04-05T03:44:40.624Z,3.20
2019-04-05T03:47:11.789Z,3.20
2019-04-05T03:49:42.625Z,3.20
2019-04-05T03:52:13.493Z,3.20
2019-04-05T03:54:44.236Z,3.20
2019-04-05T03:57:14.935Z,3.20
2019-04-05T03:59:45.687Z,3.20
2019-04-05T04:02:16.686Z,3.20
2019-04-05T04:04:47.444Z,3.20
2019-04-05T04:07:18.510Z,3.20
2019-04-05T04:09:49.235Z,3.20
2019-04-05T04:12:19.952Z,3.20
2019-04-05T04:14:50.729Z,3.20
2019-04-05T04:17:22.336Z,3.20
2019-04-05T04:19:53.090Z,3.20
2019-04-05T04:22:30.998Z,3.30
2019-04-05T04:25:01.830Z,3.30
2019-04-05T04:27:32.662Z,3.30
2019-04-05T04:30:03.708Z,3.30
2019-04-05T04:32:34.407Z,3.30
2019-04-05T04:35:05.630Z,3.30
2019-04-05T04:37:36.362Z,3.30
2019-04-05T04:40:07.644Z,3.30
2019-04-05T04:42:38.671Z,3.30
2019-04-05T04:45:12.499Z,3.40
2019-04-05T04:47:41.830Z,3.40
2019-04-05T04:50:12.991Z,3.30
2019-04-05T04:52:44.207Z,3.30
2019-04-05T04:55:14.937Z,3.30
2019-04-05T04:57:46.189Z,3.30
2019-04-05T05:00:17.145Z,3.30
2019-04-05T05:02:47.775Z,3.30
2019-04-05T05:05:19.508Z,3.30
2019-04-05T05:07:51.094Z,3.20
2019-04-05T05:10:21.992Z,3.30
2019-04-05T05:12:52.708Z,3.40
2019-04-05T05:15:23.714Z,3.30
2019-04-05T05:17:58.895Z,3.30
2019-04-05T05:20:27.087Z,3.40
2019-04-05T05:22:58.059Z,3.40
2019-04-05T05:25:28.740Z,3.30
2019-04-05T05:27:59.479Z,3.40
2019-04-05T05:30:30.803Z,3.40
2019-04-05T05:33:01.552Z,3.30
2019-04-05T05:35:32.666Z,3.30
2019-04-05T05:38:03.896Z,3.30
2019-04-05T05:40:35.558Z,3.30
2019-04-05T05:43:06.586Z,3.30
2019-04-05T05:45:37.292Z,3.40
2019-04-05T05:48:08.678Z,3.40
2019-04-05T05:50:39.729Z,3.40
2019-04-05T05:53:10.474Z,3.40
2019-04-05T05:55:41.227Z,3.40
2019-04-05T05:58:11.995Z,3.50
2019-04-05T06:00:42.727Z,3.50
2019-04-05T06:03:16.402Z,3.50
2019-04-05T06:05:45.883Z,3.50
2019-04-05T06:08:16.680Z,3.40
2019-04-05T06:10:47.427Z,3.40
2019-04-05T06:13:18.203Z,3.50
2019-04-05T06:15:48.940Z,3.50
2019-04-05T06:18:38.749Z,3.50
2019-04-05T06:21:09.503Z,3.50
2019-04-05T06:23:40.282Z,3.60
2019-04-05T06:26:11.038Z,3.70
2019-04-05T06:28:41.902Z,3.80
2019-04-05T06:31:12.653Z,3.80
2019-04-05T06:33:43.397Z,3.80
2019-04-05T06:36:14.104Z,3.80
2019-04-05T06:38:44.920Z,3.90
2019-04-05T06:41:15.686Z,3.90
2019-04-05T06:43:46.452Z,4.00
2019-04-05T06:46:17.219Z,4.00
2019-04-05T06:48:47.988Z,3.90
2019-04-05T06:51:18.733Z,3.90
2019-04-05T06:53:49.572Z,4.00
2019-04-05T06:56:20.299Z,4.20
2019-04-05T06:58:51.050Z,4.20
2019-04-05T07:01:21.809Z,4.30
2019-04-05T07:03:55.129Z,4.30
2019-04-05T07:06:25.050Z,4.40
2019-04-05T07:08:55.952Z,4.40
2019-04-05T07:11:26.679Z,4.50
2019-04-05T07:13:57.451Z,4.50
2019-04-05T07:16:28.195Z,4.60
2019-04-05T07:18:59.281Z,4.60
2019-04-05T07:21:30.050Z,4.60
2019-04-05T07:24:00.834Z,4.60
2019-04-05T07:26:31.560Z,4.70
2019-04-05T07:29:02.337Z,4.80
2019-04-05T07:31:33.093Z,4.80
2019-04-05T07:34:03.881Z,4.80
2019-04-05T07:36:34.662Z,4.90
2019-04-05T07:39:07.202Z,4.80
2019-04-05T07:41:37.968Z,4.90
2019-04-05T07:44:08.745Z,4.90
2019-04-05T07:46:39.522Z,4.80
2019-04-05T07:49:10.297Z,4.90
2019-04-05T07:51:41.034Z,4.90
2019-04-05T07:54:11.760Z,5.00
2019-04-05T07:56:42.556Z,5.10
2019-04-05T07:59:13.313Z,5.00
2019-04-05T08:01:44.108Z,5.10
2019-04-05T08:04:15.036Z,5.10
2019-04-05T08:06:48.434Z,5.10
2019-04-05T08:09:20.234Z,5.20
2019-04-05T08:11:51.105Z,5.30
2019-04-05T08:14:22.653Z,5.20
2019-04-05T08:16:53.430Z,5.30
2019-04-05T08:19:24.167Z,5.40
2019-04-05T08:21:54.951Z,5.30
2019-04-05T08:24:26.028Z,5.30
2019-04-05T08:26:56.825Z,5.30
2019-04-05T08:29:27.570Z,5.40
2019-04-05T08:31:58.366Z,5.50
2019-04-05T08:34:29.142Z,5.50
2019-04-05T08:36:59.930Z,5.50
2019-04-05T08:39:30.696Z,5.60
2019-04-05T08:42:01.661Z,5.70
2019-04-05T08:44:32.438Z,5.90
2019-04-05T08:47:03.186Z,6.10
2019-04-05T08:49:33.910Z,6.20
2019-04-05T08:52:04.686Z,6.30
2019-04-05T08:54:36.912Z,6.30
2019-04-05T08:57:07.942Z,6.30
2019-04-05T08:59:38.698Z,6.50
2019-04-05T09:02:09.422Z,6.60
2019-04-05T09:04:40.181Z,6.70
2019-04-05T09:07:10.964Z,6.60
2019-04-05T09:09:41.719Z,6.50
2019-04-05T09:12:12.478Z,6.40
2019-04-05T09:14:43.195Z,6.40
2019-04-05T09:17:13.849Z,6.30
2019-04-05T09:19:44.566Z,6.10
2019-04-05T09:22:15.295Z,6.10
2019-04-05T09:24:46.056Z,6.10
2019-04-05T09:27:16.834Z,6.20
2019-04-05T09:29:47.612Z,6.10
2019-04-05T09:32:18.457Z,6.00
2019-04-05T09:34:49.156Z,5.90
2019-04-05T09:37:19.933Z,5.90
2019-04-05T09:39:50.626Z,6.00
2019-04-05T09:42:21.362Z,6.00
2019-04-05T09:44:52.079Z,6.00
2019-04-05T09:47:22.905Z,5.90
2019-04-05T09:49:53.651Z,5.90
2019-04-05T09:52:24.379Z,5.90
2019-04-05T09:54:55.124Z,5.90
2019-04-05T09:57:25.850Z,6.00
2019-04-05T09:59:56.589Z,5.90
2019-04-05T10:02:27.363Z,5.90
2019-04-05T10:04:58.049Z,5.80
2019-04-05T10:07:28.806Z,5.80
2019-04-05T10:09:59.512Z,5.80
2019-04-05T10:12:30.260Z,5.80
2019-04-05T10:15:00.945Z,5.70
2019-04-05T10:17:31.641Z,5.70
2019-04-05T10:20:02.271Z,5.70
2019-04-05T10:22:33.023Z,5.80
2019-04-05T10:25:03.970Z,5.80
2019-04-05T10:27:34.676Z,5.70
2019-04-05T10:30:07.903Z,5.70
2019-04-05T10:32:38.629Z,5.70
2019-04-05T10:35:09.567Z,5.60
2019-04-05T10:37:40.263Z,5.60
2019-04-05T10:40:11.409Z,5.60
2019-04-05T10:42:42.079Z,5.60
2019-04-05T10:45:13.431Z,5.70
2019-04-05T10:47:44.161Z,5.60
2019-04-05T10:50:15.814Z,5.80
2019-04-05T10:52:46.520Z,5.90
2019-04-05T10:55:17.277Z,5.90
2019-04-05T10:57:48.363Z,5.90
2019-04-05T11:00:19.840Z,5.90
2019-04-05T11:02:50.587Z,5.90
2019-04-05T11:05:21.322Z,6.00
2019-04-05T11:07:52.098Z,6.00
2019-04-05T11:10:22.865Z,5.90
2019-04-05T11:12:54.103Z,5.90
2019-04-05T11:15:24.877Z,5.90
2019-04-05T11:17:55.666Z,6.00
2019-04-05T11:20:26.402Z,6.10
2019-04-05T11:22:57.132Z,6.20
2019-04-05T11:25:27.923Z,6.30
2019-04-05T11:27:58.992Z,6.40
2019-04-05T11:30:43.563Z,6.50
2019-04-05T11:33:14.604Z,6.60
2019-04-05T11:35:45.380Z,6.60
2019-04-05T11:38:16.527Z,6.50
2019-04-05T11:40:48.233Z,6.60
2019-04-05T11:43:21.270Z,6.70
2019-04-05T11:45:53.396Z,6.70
2019-04-05T11:48:24.163Z,6.80
2019-04-05T11:50:54.932Z,6.80
2019-04-05T11:53:25.665Z,6.80
2019-04-05T11:55:56.432Z,6.70
2019-04-05T11:58:27.149Z,6.70
2019-04-05T12:01:23.318Z,6.70
2019-04-05T12:03:52.836Z,6.70
2019-04-05T12:06:23.572Z,6.60
2019-04-05T12:08:54.388Z,6.50
2019-04-05T12:11:28.195Z,6.40
2019-04-05T12:13:58.923Z,6.40
2019-04-05T12:16:29.698Z,6.40
2019-04-05T12:19:00.425Z,6.40
2019-04-05T12:21:32.605Z,6.50
2019-04-05T12:24:03.557Z,6.60
2019-04-05T12:26:34.634Z,6.60
2019-04-05T12:29:06.010Z,6.70
2019-04-05T12:31:36.706Z,6.80
2019-04-05T12:34:07.463Z,6.90
2019-04-05T12:36:38.256Z,7.00
2019-04-05T12:39:09.266Z,7.00
2019-04-05T12:41:40.867Z,7.10
2019-04-05T12:44:15.190Z,7.10
2019-04-05T12:46:45.852Z,6.90
2019-04-05T12:49:17.071Z,6.90
2019-04-05T12:51:47.874Z,6.90
2019-04-05T12:54:18.653Z,6.80
2019-04-05T12:56:49.420Z,6.60
2019-04-05T12:59:20.136Z,6.60
2019-04-05T13:01:50.962Z,6.60
2019-04-05T13:04:21.688Z,6.60
2019-04-05T13:06:53.676Z,6.60
2019-04-05T13:09:24.780Z,6.60
2019-04-05T13:11:57.294Z,6.50
2019-04-05T13:14:28.284Z,6.40
2019-04-05T13:17:01.784Z,6.40
2019-04-05T13:19:31.408Z,6.40
2019-04-05T13:22:02.976Z,6.40
2019-04-05T13:24:34.310Z,6.40
2019-04-05T13:27:05.227Z,6.50
2019-04-05T13:29:35.973Z,6.50
2019-04-05T13:32:06.739Z,6.40
2019-04-05T13:34:37.445Z,6.50
2019-04-05T13:37:19.573Z,6.50
2019-04-05T13:39:40.566Z,6.50
2019-04-05T13:42:12.206Z,6.50
2019-04-05T13:44:42.914Z,6.60
2019-04-05T13:47:13.660Z,6.70
2019-04-05T13:49:44.372Z,6.70
2019-04-05T13:52:15.109Z,6.60
2019-04-05T13:54:45.769Z,6.60
2019-04-05T13:57:16.562Z,6.50
2019-04-05T13:59:48.970Z,6.50
2019-04-05T14:02:21.180Z,6.50
2019-04-05T14:04:53.959Z,6.40
2019-04-05T14:07:25.269Z,6.40
2019-04-05T14:09:56.114Z,6.40
2019-04-05T14:12:26.810Z,6.40
2019-04-05T14:14:57.536Z,6.40
2019-04-05T14:17:28.248Z,6.40
2019-04-05T14:19:58.965Z,6.40
2019-04-05T14:22:29.677Z,6.40
2019-04-05T14:25:00.401Z,6.40
2019-04-05T14:27:34.820Z,6.40
2019-04-05T14:30:03.635Z,6.40
2019-04-05T14:32:34.332Z,6.40
2019-04-05T14:35:07.812Z,6.50
2019-04-05T14:37:37.894Z,6.60
2019-04-05T14:40:09.134Z,6.60
2019-04-05T14:42:39.879Z,6.50
2019-04-05T14:45:11.125Z,6.50
2019-04-05T14:47:41.835Z,6.50
2019-04-05T14:50:15.814Z,6.50
2019-04-05T14:52:45.572Z,6.40
2019-04-05T14:55:16.332Z,6.40
2019-04-05T14:57:47.155Z,6.40
2019-04-05T15:00:18.601Z,6.40
2019-04-05T15:02:49.307Z,6.40
2019-04-05T15:05:20.094Z,6.40
2019-04-05T15:07:51.719Z,6.30
2019-04-05T15:10:25.009Z,6.20
2019-04-05T15:12:54.853Z,6.20
2019-04-05T15:15:25.580Z,6.20
2019-04-05T15:17:56.346Z,6.10
2019-04-05T15:20:27.092Z,6.10
2019-04-05T15:22:57.849Z,6.20
2019-04-05T15:25:28.626Z,6.00
2019-04-05T15:27:59.385Z,6.00
2019-04-05T15:30:30.168Z,6.10
2019-04-05T15:33:03.744Z,6.10
2019-04-05T15:35:34.500Z,6.10
2019-04-05T15:38:05.149Z,6.10
2019-04-05T15:40:36.163Z,6.10
2019-04-05T15:43:06.859Z,6.10
2019-04-05T15:45:37.685Z,6.10
2019-04-05T15:48:08.443Z,6.10
2019-04-05T15:50:39.238Z,6.10
2019-04-05T15:53:09.975Z,6.10
2019-04-05T15:55:40.622Z,6.10
2019-04-05T15:58:11.349Z,6.10
2019-04-05T16:00:44.265Z,6.10
2019-04-05T16:03:15.452Z,6.10
2019-04-05T16:05:47.119Z,6.00
2019-04-05T16:08:18.984Z,6.00
2019-04-05T16:10:49.750Z,6.10
2019-04-05T16:13:20.507Z,6.10
2019-04-05T16:15:51.273Z,6.10
2019-04-05T16:18:22.040Z,6.00
2019-04-05T16:20:52.851Z,6.00
2019-04-05T16:23:24.071Z,6.00
2019-04-05T16:25:54.828Z,5.90
2019-04-05T16:28:25.565Z,5.90
2019-04-05T16:30:56.331Z,5.90
2019-04-05T16:33:27.186Z,5.90
2019-04-05T16:35:58.150Z,5.90
2019-04-05T16:38:28.820Z,5.90
2019-04-05T16:40:59.626Z,5.80
2019-04-05T16:43:30.327Z,5.80
2019-04-05T16:46:01.248Z,5.90
2019-04-05T16:48:31.995Z,5.80
2019-04-05T16:51:02.760Z,5.80
2019-04-05T16:53:33.517Z,5.80
2019-04-05T16:56:04.459Z,5.80
2019-04-05T16:58:35.237Z,5.80
2019-04-05T17:01:05.996Z,5.70
2019-04-05T17:03:36.837Z,5.70
2019-04-05T17:06:07.579Z,5.70
2019-04-05T17:08:38.426Z,5.70
2019-04-05T17:11:09.207Z,5.60
2019-04-05T17:13:39.998Z,5.60
2019-04-05T17:16:10.829Z,5.70
2019-04-05T17:18:41.665Z,5.70
2019-04-05T17:21:12.409Z,5.60
2019-04-05T17:23:43.236Z,5.60
2019-04-05T17:26:14.009Z,5.70
2019-04-05T17:28:44.859Z,5.70
2019-04-05T17:31:15.627Z,5.70
2019-04-05T17:33:46.412Z,5.70
2019-04-05T17:36:17.233Z,5.70
2019-04-05T17:38:48.049Z,5.80
2019-04-05T17:41:18.864Z,5.70
2019-04-05T17:43:49.674Z,5.70
2019-04-05T17:46:20.382Z,5.70
2019-04-05T17:48:51.940Z,5.70
2019-04-05T17:51:22.820Z,5.70
2019-04-05T17:53:53.704Z,5.60
2019-04-05T17:56:24.457Z,5.70
2019-04-05T17:58:56.664Z,5.70
2019-04-05T18:01:27.533Z,5.70
2019-04-05T18:03:58.371Z,5.70
2019-04-05T18:06:29.155Z,5.70
2019-04-05T18:09:00.050Z,5.60
2019-04-05T18:11:30.806Z,5.60
2019-04-05T18:14:01.620Z,5.60
2019-04-05T18:16:32.419Z,5.60
2019-04-05T18:19:03.257Z,5.60
2019-04-05T18:21:34.019Z,5.60
2019-04-05T18:24:04.859Z,5.60
2019-04-05T18:26:35.622Z,5.60
2019-04-05T18:29:06.511Z,5.60
2019-04-05T18:31:37.215Z,5.60
2019-04-05T18:34:08.012Z,5.60
2019-04-05T18:36:38.747Z,5.60
2019-04-05T18:39:10.118Z,5.50
2019-04-05T18:41:40.954Z,5.60
2019-04-05T18:44:11.686Z,5.50
2019-04-05T18:46:42.489Z,5.50
2019-04-05T18:49:13.283Z,5.50
2019-04-05T18:51:43.995Z,5.50
2019-04-05T18:54:14.752Z,5.50
2019-04-05T18:56:45.489Z,5.50
2019-04-05T18:59:16.375Z,5.50
2019-04-05T19:01:47.083Z,5.50
2019-04-05T19:04:17.837Z,5.60
2019-04-05T19:06:48.613Z,5.60
2019-04-05T19:09:19.527Z,5.60
2019-04-05T19:11:50.306Z,5.60
2019-04-05T19:14:21.072Z,5.60
2019-04-05T19:16:51.839Z,5.60
2019-04-05T19:19:22.631Z,5.60
2019-04-05T19:21:53.341Z,5.60
2019-04-05T19:24:24.150Z,5.60
2019-04-05T19:26:54.894Z,5.60
2019-04-05T19:29:25.660Z,5.60
2019-04-05T19:49:43.034Z,5.60
2019-04-05T19:52:13.741Z,5.60
2019-04-05T19:54:44.478Z,5.60
2019-04-05T19:57:15.213Z,5.60
2019-04-05T19:59:45.955Z,5.60
2019-04-05T20:02:16.695Z,5.60
2019-04-05T20:04:47.481Z,5.60
2019-04-05T20:07:18.232Z,5.60
2019-04-05T20:09:49.030Z,5.60
2019-04-05T20:12:19.760Z,5.60
2019-04-05T20:14:50.527Z,5.70
2019-04-05T20:17:21.273Z,5.70
2019-04-05T20:19:52.040Z,5.70
2019-04-05T20:22:22.807Z,5.60
2019-04-05T20:24:53.571Z,5.70
2019-04-05T20:27:24.369Z,5.70
2019-04-05T20:29:55.147Z,5.70
2019-04-05T20:32:25.913Z,5.60
2019-04-05T20:34:56.668Z,5.60
2019-04-05T20:37:27.444Z,5.70
2019-04-05T20:39:58.161Z,5.70
2019-04-05T20:42:28.947Z,5.70
2019-04-05T20:44:59.663Z,5.70
2019-04-05T20:47:30.440Z,5.70
2019-04-05T20:50:01.178Z,5.70
2019-04-05T20:52:31.928Z,5.70
2019-04-05T20:55:02.688Z,5.70
2019-04-05T20:57:33.425Z,5.70
2019-04-05T21:00:05.492Z,5.70
2019-04-05T21:02:36.479Z,5.70
2019-04-05T21:05:07.315Z,5.70
2019-04-05T21:07:38.151Z,5.70
2019-04-05T21:10:09.268Z,5.70
2019-04-05T21:12:40.054Z,5.70
2019-04-05T21:15:10.911Z,5.70
2019-04-05T21:17:41.748Z,5.70
2019-04-05T21:20:12.804Z,5.70
2019-04-05T21:22:43.590Z,5.80
2019-04-05T21:25:14.328Z,5.70
2019-04-05T21:27:45.127Z,5.70
2019-04-05T21:30:15.929Z,5.70
2019-04-05T21:32:46.709Z,5.80
2019-04-05T21:35:17.452Z,5.70
2019-04-05T21:37:48.540Z,5.70
2019-04-05T21:40:19.295Z,5.70
2019-04-05T21:42:50.082Z,5.70
2019-04-05T21:45:20.828Z,5.70
2019-04-05T21:47:51.657Z,5.70
2019-04-05T21:50:22.423Z,5.70
2019-04-05T21:52:53.188Z,5.80
2019-04-05T21:55:23.926Z,5.70
2019-04-05T21:57:54.680Z,5.70
2019-04-05T22:00:30.927Z,5.80
2019-04-05T22:03:01.726Z,5.80
2019-04-05T22:05:32.447Z,5.80
2019-04-05T22:08:03.207Z,5.70
2019-04-05T22:10:33.884Z,5.70
2019-04-05T22:13:04.650Z,5.70
2019-04-05T22:15:35.337Z,5.70
2019-04-05T22:18:06.052Z,5.60
2019-04-05T22:20:36.728Z,5.60
2019-04-05T22:23:07.325Z,5.60
2019-04-05T22:25:38.062Z,5.60
2019-04-05T22:28:08.798Z,5.60
2019-04-05T22:30:39.524Z,5.70
2019-04-05T22:33:12.742Z,5.60
2019-04-05T22:35:43.489Z,5.60
2019-04-05T22:38:14.104Z,5.70
2019-04-05T22:40:44.820Z,5.70
2019-04-05T22:43:15.437Z,5.80
2019-04-05T22:45:46.175Z,5.80
2019-04-05T22:48:16.870Z,5.80
2019-04-05T22:50:47.588Z,5.80
2019-04-05T22:53:18.283Z,5.70
2019-04-05T22:55:48.959Z,5.80
2019-04-05T22:58:19.665Z,5.80
2019-04-05T23:00:50.388Z,5.80
2019-04-05T23:03:21.089Z,5.70
2019-04-05T23:05:51.786Z,5.60
2019-04-05T23:08:22.503Z,5.60
2019-04-05T23:10:53.198Z,5.60
2019-04-05T23:13:23.884Z,5.60
2019-04-05T23:15:54.567Z,5.60
2019-04-05T23:18:25.227Z,5.60
2019-04-05T23:20:55.934Z,5.60
2019-04-05T23:23:26.600Z,5.60
2019-04-05T23:25:57.339Z,5.50
2019-04-05T23:28:28.041Z,5.40
2019-04-05T23:30:58.739Z,5.40
2019-04-05T23:33:29.477Z,5.30
2019-04-05T23:36:00.202Z,5.30
2019-04-05T23:38:30.899Z,5.30
2019-04-05T23:41:01.614Z,5.20
2019-04-05T23:43:32.301Z,5.10
2019-04-05T23:46:03.030Z,5.00
2019-04-05T23:48:33.744Z,5.00
2019-04-05T23:51:04.468Z,4.90
2019-04-05T23:53:35.167Z,4.80
2019-04-05T23:56:05.873Z,4.70
2019-04-05T23:58:36.542Z,4.60
